Airfield :
LOGIN :

Register | Disclaimer

   EN    FR    IT 

 










Legend :    VFR   Marginal VFR   IFR   Intensive IFR   Very Intensive IFR
Visi :
Ceiling :
>= 8 km
>= 3000ft
5 to 8 km
1000 to 3000 ft
1500m to 5 km
500 to 1000 ft
800 to 1500m
200 to 500 ft
< 800m
< 200 ft
Symbols :   Thunderstorms  Fog  Heavy snow  Heavy precipitations  Wind > 20 kt
SIGMETs :     Misc.  Thunderstorms  Icing  Turbulence  Mountain Waves  Volcanic Ashes






- Airport Elevation : 12 ft
- IATA code : NCE


LFMN - Nice

CURRENT METAR :
  • 291030Z 29012KT 260V320 9999 FEW020 BKN260 16/02 Q1011 NOSIG

EXPIRED METARs :
  • 291000Z 29010KT 250V340 9999 FEW020 SCT260 14/03 Q1011 WS ALL RWY NOSIG
  • 290930Z 30004KT 260V010 9999 FEW020 SCT260 14/01 Q1011 WS ALL RWY NOSIG
  • 290900Z 28015KT CAVOK 13/03 Q1010 NOSIG
  • 290830Z 27023KT CAVOK 13/02 Q1010 NOSIG
  • 290800Z 27019KT CAVOK 12/02 Q1010 NOSIG

TAF AMD TAF LFMN
Valid from the 29 at 09:00 until the 30 at 15:00 UTC


290828Z 2909/3015 27015KT CAVOK
TEMPO 2909/2911 27025KT
TEMPO 2914/2919 09010KT
BECMG 2919/2921 33010KT
PROB30
TEMPO 3009/3012 BKN014
BECMG 3010/3012 12005KT
ATIS : +33 4 93 17 21 16



MET'MAP, your aeronautical weather chart ! - Copyright ORBIFLY December 2007 - Disclaimer

ORBIFLY MET'MAP TEAM :

Programming & Development : Alexandra Zaïnal
Concept & original design : Baudouin d'Aumeries
Assistance for programming : Marc-Olivier Méhu
Technical & hardware support : Manuel Goepfert

Contact : metmap@orbifly.com




SOURCES & CREDITS :

   NOAA